sensor_id;sensor_type;location;lat;lon;timestamp;pressure;altitude;pressure_sealevel;temperature;humidity
75936;BME280;64614;32.062;34.834;2022-12-07T00:00:55;101294.53;;;23.19;58.86
75936;BME280;64614;32.062;34.834;2022-12-07T00:03:20;101293.41;;;23.20;58.55
75936;BME280;64614;32.062;34.834;2022-12-07T00:05:46;101283.56;;;23.19;59.06
75936;BME280;64614;32.062;34.834;2022-12-07T00:08:12;101287.13;;;23.20;59.33
75936;BME280;64614;32.062;34.834;2022-12-07T00:10:37;101297.25;;;23.19;58.66
75936;BME280;64614;32.062;34.834;2022-12-07T00:13:03;101296.47;;;23.19;59.37
75936;BME280;64614;32.062;34.834;2022-12-07T00:15:29;101295.66;;;23.18;58.80
75936;BME280;64614;32.062;34.834;2022-12-07T00:17:54;101295.91;;;23.16;59.17
75936;BME280;64614;32.062;34.834;2022-12-07T00:20:20;101311.84;;;23.14;59.24
75936;BME280;64614;32.062;34.834;2022-12-07T00:22:46;101299.28;;;23.13;59.35
75936;BME280;64614;32.062;34.834;2022-12-07T00:25:12;101314.56;;;23.14;60.23
75936;BME280;64614;32.062;34.834;2022-12-07T00:27:37;101313.56;;;23.10;59.89
75936;BME280;64614;32.062;34.834;2022-12-07T00:30:04;101309.88;;;23.01;57.77
75936;BME280;64614;32.062;34.834;2022-12-07T00:32:29;101314.31;;;22.97;57.52
75936;BME280;64614;32.062;34.834;2022-12-07T00:34:55;101309.22;;;22.90;57.63
75936;BME280;64614;32.062;34.834;2022-12-07T00:37:21;101323.59;;;22.82;58.26
75936;BME280;64614;32.062;34.834;2022-12-07T00:39:46;101329.34;;;22.80;58.65
75936;BME280;64614;32.062;34.834;2022-12-07T00:42:12;101328.41;;;22.71;56.65
75936;BME280;64614;32.062;34.834;2022-12-07T00:44:38;101324.94;;;22.84;58.33
75936;BME280;64614;32.062;34.834;2022-12-07T00:47:03;101322.03;;;22.95;60.56
75936;BME280;64614;32.062;34.834;2022-12-07T00:49:29;101327.41;;;23.00;59.99
75936;BME280;64614;32.062;34.834;2022-12-07T00:51:55;101326.84;;;23.03;59.33
75936;BME280;64614;32.062;34.834;2022-12-07T00:54:20;101332.81;;;23.05;59.28
75936;BME280;64614;32.062;34.834;2022-12-07T00:56:46;101333.31;;;23.07;58.43
75936;BME280;64614;32.062;34.834;2022-12-07T00:59:13;101327.84;;;23.07;58.39
75936;BME280;64614;32.062;34.834;2022-12-07T01:01:41;101323.19;;;23.08;58.15
75936;BME280;64614;32.062;34.834;2022-12-07T01:04:07;101330.00;;;23.10;58.03
75936;BME280;64614;32.062;34.834;2022-12-07T01:06:33;101325.94;;;23.08;58.16
75936;BME280;64614;32.062;34.834;2022-12-07T01:08:59;101329.47;;;23.08;57.90
75936;BME280;64614;32.062;34.834;2022-12-07T01:11:27;101317.41;;;23.09;57.60
75936;BME280;64614;32.062;34.834;2022-12-07T01:13:56;101321.25;;;23.08;57.71
75936;BME280;64614;32.062;34.834;2022-12-07T01:16:23;101316.59;;;23.09;58.07
75936;BME280;64614;32.062;34.834;2022-12-07T01:18:51;101313.63;;;23.05;57.84
75936;BME280;64614;32.062;34.834;2022-12-07T01:21:23;101314.16;;;23.07;58.08
75936;BME280;64614;32.062;34.834;2022-12-07T01:23:49;101307.88;;;23.07;57.29
75936;BME280;64614;32.062;34.834;2022-12-07T01:26:18;101316.88;;;23.07;58.03
75936;BME280;64614;32.062;34.834;2022-12-07T01:28:45;101313.34;;;23.07;57.78
75936;BME280;64614;32.062;34.834;2022-12-07T01:31:13;101307.88;;;23.07;58.19
75936;BME280;64614;32.062;34.834;2022-12-07T01:33:48;101309.78;;;23.06;58.02
75936;BME280;64614;32.062;34.834;2022-12-07T01:36:43;101308.16;;;23.05;57.42
75936;BME280;64614;32.062;34.834;2022-12-07T01:39:09;101308.16;;;23.05;57.65
75936;BME280;64614;32.062;34.834;2022-12-07T01:41:37;101316.88;;;23.07;58.21
75936;BME280;64614;32.062;34.834;2022-12-07T01:46:34;101307.34;;;23.05;57.45
75936;BME280;64614;32.062;34.834;2022-12-07T01:49:01;101305.13;;;23.07;58.38
75936;BME280;64614;32.062;34.834;2022-12-07T01:51:29;101306.25;;;23.06;58.86
75936;BME280;64614;32.062;34.834;2022-12-07T01:53:55;101309.34;;;22.99;57.98
75936;BME280;64614;32.062;34.834;2022-12-07T01:56:24;101310.97;;;23.00;59.56
75936;BME280;64614;32.062;34.834;2022-12-07T01:58:52;101302.75;;;23.00;58.17
75936;BME280;64614;32.062;34.834;2022-12-07T02:01:18;101310.97;;;23.00;59.34
75936;BME280;64614;32.062;34.834;2022-12-07T02:03:44;101306.09;;;22.97;56.94
75936;BME280;64614;32.062;34.834;2022-12-07T02:06:14;101309.06;;;22.81;56.64
75936;BME280;64614;32.062;34.834;2022-12-07T02:08:42;101310.41;;;22.84;58.43
75936;BME280;64614;32.062;34.834;2022-12-07T02:11:09;101306.34;;;22.81;57.71
75936;BME280;64614;32.062;34.834;2022-12-07T02:13:38;101314.28;;;22.83;56.80
75936;BME280;64614;32.062;34.834;2022-12-07T02:32:03;101300.28;;;22.84;57.66
75936;BME280;64614;32.062;34.834;2022-12-07T02:34:40;101302.66;;;22.72;55.67
75936;BME280;64614;32.062;34.834;2022-12-07T02:40:00;101310.34;;;22.70;56.75
75936;BME280;64614;32.062;34.834;2022-12-07T02:42:36;101317.16;;;22.73;57.85
75936;BME280;64614;32.062;34.834;2022-12-07T02:45:04;101305.31;;;22.77;58.54
75936;BME280;64614;32.062;34.834;2022-12-07T02:47:31;101311.75;;;22.87;55.95
75936;BME280;64614;32.062;34.834;2022-12-07T02:49:58;101309.91;;;22.82;55.36
75936;BME280;64614;32.062;34.834;2022-12-07T02:52:24;101309.69;;;22.78;54.94
75936;BME280;64614;32.062;34.834;2022-12-07T02:54:49;101311.06;;;22.76;54.82
75936;BME280;64614;32.062;34.834;2022-12-07T02:57:22;101315.75;;;22.75;54.48
75936;BME280;64614;32.062;34.834;2022-12-07T03:00:09;101315.75;;;22.75;54.88
75936;BME280;64614;32.062;34.834;2022-12-07T03:02:59;101316.84;;;22.74;54.39
75936;BME280;64614;32.062;34.834;2022-12-07T03:05:49;101316.06;;;22.74;54.60
75936;BME280;64614;32.062;34.834;2022-12-07T03:09:08;101321.81;;;22.72;54.44
75936;BME280;64614;32.062;34.834;2022-12-07T03:11:29;101314.44;;;22.73;54.25
75936;BME280;64614;32.062;34.834;2022-12-07T03:14:15;101317.44;;;22.71;54.24
75936;BME280;64614;32.062;34.834;2022-12-07T03:16:47;101316.94;;;22.69;54.14
75936;BME280;64614;32.062;34.834;2022-12-07T03:19:20;101316.94;;;22.69;54.13
75936;BME280;64614;32.062;34.834;2022-12-07T03:21:58;101325.16;;;22.69;53.85
75936;BME280;64614;32.062;34.834;2022-12-07T03:24:28;101325.44;;;22.67;54.00
75936;BME280;64614;32.062;34.834;2022-12-07T03:27:03;101339.44;;;22.66;54.22
75936;BME280;64614;32.062;34.834;2022-12-07T03:29:37;101334.25;;;22.64;54.11
75936;BME280;64614;32.062;34.834;2022-12-07T03:32:11;101328.47;;;22.66;54.24
75936;BME280;64614;32.062;34.834;2022-12-07T03:34:53;101330.63;;;22.69;54.20
75936;BME280;64614;32.062;34.834;2022-12-07T03:37:32;101334.38;;;22.73;56.81
75936;BME280;64614;32.062;34.834;2022-12-07T03:40:19;101345.78;;;22.80;57.48
75936;BME280;64614;32.062;34.834;2022-12-07T03:42:49;101343.88;;;22.81;57.86
75936;BME280;64614;32.062;34.834;2022-12-07T03:45:16;101338.19;;;22.77;54.56
75936;BME280;64614;32.062;34.834;2022-12-07T03:47:44;101337.56;;;22.80;54.52
75936;BME280;64614;32.062;34.834;2022-12-07T03:53:08;101344.25;;;22.74;54.65
75936;BME280;64614;32.062;34.834;2022-12-07T03:55:39;101331.97;;;22.72;54.67
75936;BME280;64614;32.062;34.834;2022-12-07T03:58:14;101340.09;;;22.77;57.06
75936;BME280;64614;32.062;34.834;2022-12-07T04:00:42;101339.28;;;22.76;56.55
75936;BME280;64614;32.062;34.834;2022-12-07T04:03:08;101338.69;;;22.79;56.34
75936;BME280;64614;32.062;34.834;2022-12-07T04:05:34;101345.28;;;22.78;56.02
75936;BME280;64614;32.062;34.834;2022-12-07T04:08:00;101353.50;;;22.78;56.38
75936;BME280;64614;32.062;34.834;2022-12-07T04:10:26;101353.50;;;22.78;56.33
75936;BME280;64614;32.062;34.834;2022-12-07T04:12:51;101359.47;;;22.80;56.06
75936;BME280;64614;32.062;34.834;2022-12-07T04:15:17;101363.84;;;22.81;56.45
75936;BME280;64614;32.062;34.834;2022-12-07T04:17:43;101369.84;;;22.83;56.63
75936;BME280;64614;32.062;34.834;2022-12-07T04:20:09;101369.84;;;22.83;56.20
75936;BME280;64614;32.062;34.834;2022-12-07T04:22:35;101380.13;;;22.73;53.66
75936;BME280;64614;32.062;34.834;2022-12-07T04:25:01;101383.47;;;22.69;54.55
75936;BME280;64614;32.062;34.834;2022-12-07T04:27:28;101380.56;;;22.61;54.24
75936;BME280;64614;32.062;34.834;2022-12-07T04:30:02;101380.06;;;22.59;54.06
75936;BME280;64614;32.062;34.834;2022-12-07T04:32:30;101378.72;;;22.56;54.01
75936;BME280;64614;32.062;34.834;2022-12-07T04:37:22;101380.75;;;22.45;52.76
75936;BME280;64614;32.062;34.834;2022-12-07T04:39:48;101386.75;;;22.47;53.17
75936;BME280;64614;32.062;34.834;2022-12-07T04:42:32;101381.81;;;22.49;52.54
75936;BME280;64614;32.062;34.834;2022-12-07T04:47:24;101374.53;;;22.40;52.60
75936;BME280;64614;32.062;34.834;2022-12-07T04:49:56;101376.16;;;22.41;53.15
75936;BME280;64614;32.062;34.834;2022-12-07T04:52:21;101381.63;;;22.41;53.13
75936;BME280;64614;32.062;34.834;2022-12-07T04:54:47;101388.38;;;22.48;53.19
75936;BME280;64614;32.062;34.834;2022-12-07T04:57:13;101389.50;;;22.47;52.79
75936;BME280;64614;32.062;34.834;2022-12-07T04:59:38;101392.75;;;22.49;53.61
75936;BME280;64614;32.062;34.834;2022-12-07T05:02:04;101380.25;;;22.43;53.05
75936;BME280;64614;32.062;34.834;2022-12-07T05:04:30;101381.81;;;22.49;54.22
75936;BME280;64614;32.062;34.834;2022-12-07T05:06:56;101376.25;;;22.54;54.27
75936;BME280;64614;32.062;34.834;2022-12-07T05:09:21;101372.31;;;22.42;56.78
75936;BME280;64614;32.062;34.834;2022-12-07T05:11:47;101388.38;;;22.48;54.92
75936;BME280;64614;32.062;34.834;2022-12-07T05:14:15;101376.16;;;22.41;53.97
75936;BME280;64614;32.062;34.834;2022-12-07T05:16:42;101384.63;;;22.39;54.17
75936;BME280;64614;32.062;34.834;2022-12-07T05:19:08;101381.50;;;22.27;52.94
75936;BME280;64614;32.062;34.834;2022-12-07T05:21:35;101379.47;;;22.37;53.08
75936;BME280;64614;32.062;34.834;2022-12-07T05:24:01;101380.44;;;21.98;51.85
75936;BME280;64614;32.062;34.834;2022-12-07T05:26:28;101385.28;;;22.06;53.13
75936;BME280;64614;32.062;34.834;2022-12-07T05:28:56;101388.75;;;21.58;52.13
75936;BME280;64614;32.062;34.834;2022-12-07T05:31:22;101395.38;;;21.07;54.24
75936;BME280;64614;32.062;34.834;2022-12-07T05:33:50;101395.69;;;21.80;53.11
75936;BME280;64614;32.062;34.834;2022-12-07T05:36:16;101398.16;;;22.06;52.71
75936;BME280;64614;32.062;34.834;2022-12-07T05:38:42;101399.16;;;22.15;52.68
75936;BME280;64614;32.062;34.834;2022-12-07T05:41:09;101397.19;;;22.21;53.01
75936;BME280;64614;32.062;34.834;2022-12-07T05:43:57;101391.88;;;22.30;53.58
75936;BME280;64614;32.062;34.834;2022-12-07T05:46:27;101400.59;;;22.32;53.24
75936;BME280;64614;32.062;34.834;2022-12-07T05:48:53;101401.41;;;22.32;53.16
75936;BME280;64614;32.062;34.834;2022-12-07T05:51:19;101402.47;;;22.36;53.33
75936;BME280;64614;32.062;34.834;2022-12-07T05:53:45;101406.06;;;22.32;53.39
75936;BME280;64614;32.062;34.834;2022-12-07T05:56:11;101411.66;;;22.21;52.68
75936;BME280;64614;32.062;34.834;2022-12-07T05:58:37;101415.19;;;22.22;52.56
75936;BME280;64614;32.062;34.834;2022-12-07T06:01:23;101408.63;;;22.23;52.30
75936;BME280;64614;32.062;34.834;2022-12-07T06:03:48;101413.53;;;22.26;52.85
75936;BME280;64614;32.062;34.834;2022-12-07T06:06:16;101408.84;;;22.27;52.22
75936;BME280;64614;32.062;34.834;2022-12-07T06:08:41;101404.75;;;22.29;52.69
75936;BME280;64614;32.062;34.834;2022-12-07T06:11:08;101415.97;;;22.28;52.30
75936;BME280;64614;32.062;34.834;2022-12-07T06:13:54;101408.91;;;22.21;52.46
75936;BME280;64614;32.062;34.834;2022-12-07T06:16:22;101421.44;;;22.28;52.20
75936;BME280;64614;32.062;34.834;2022-12-07T06:18:49;101415.97;;;22.28;52.21
75936;BME280;64614;32.062;34.834;2022-12-07T06:21:17;101419.22;;;22.30;52.52
75936;BME280;64614;32.062;34.834;2022-12-07T06:23:43;101424.88;;;22.14;52.67
75936;BME280;64614;32.062;34.834;2022-12-07T06:26:09;101419.59;;;21.94;52.07
75936;BME280;64614;32.062;34.834;2022-12-07T06:28:35;101423.53;;;21.82;52.33
75936;BME280;64614;32.062;34.834;2022-12-07T06:31:01;101422.44;;;21.83;52.33
75936;BME280;64614;32.062;34.834;2022-12-07T06:33:27;101433.97;;;21.80;52.40
75936;BME280;64614;32.062;34.834;2022-12-07T06:35:53;101428.25;;;21.77;52.67
75936;BME280;64614;32.062;34.834;2022-12-07T06:38:19;101431.25;;;21.75;52.83
75936;BME280;64614;32.062;34.834;2022-12-07T06:40:45;101419.28;;;21.71;52.89
75936;BME280;64614;32.062;34.834;2022-12-07T06:43:11;101422.56;;;21.68;52.95
75936;BME280;64614;32.062;34.834;2022-12-07T06:45:36;101431.88;;;21.67;52.80
75936;BME280;64614;32.062;34.834;2022-12-07T06:48:03;101417.66;;;21.70;52.90
75936;BME280;64614;32.062;34.834;2022-12-07T06:50:29;101420.63;;;21.73;53.11
75936;BME280;64614;32.062;34.834;2022-12-07T06:52:54;101421.72;;;21.72;53.15
75936;BME280;64614;32.062;34.834;2022-12-07T06:55:20;101429.19;;;21.56;53.47
75936;BME280;64614;32.062;34.834;2022-12-07T06:57:45;101416.97;;;21.49;53.47
75936;BME280;64614;32.062;34.834;2022-12-07T07:00:12;101420.56;;;21.44;53.70
75936;BME280;64614;32.062;34.834;2022-12-07T07:02:37;101426.56;;;21.46;53.62
75936;BME280;64614;32.062;34.834;2022-12-07T07:05:03;101435.56;;;21.47;53.90
75936;BME280;64614;32.062;34.834;2022-12-07T07:07:29;101421.13;;;21.41;54.02
75936;BME280;64614;32.062;34.834;2022-12-07T07:12:20;101424.16;;;21.39;54.25
75936;BME280;64614;32.062;34.834;2022-12-07T07:14:47;101434.94;;;21.55;54.04
75936;BME280;64614;32.062;34.834;2022-12-07T07:17:13;101433.56;;;21.63;53.80
75936;BME280;64614;32.062;34.834;2022-12-07T07:19:39;101442.34;;;21.54;53.75
75936;BME280;64614;32.062;34.834;2022-12-07T07:22:04;101432.59;;;21.43;53.96
75936;BME280;64614;32.062;34.834;2022-12-07T07:24:30;101440.53;;;21.39;53.76
75936;BME280;64614;32.062;34.834;2022-12-07T07:26:56;101439.72;;;21.39;54.10
75936;BME280;64614;32.062;34.834;2022-12-07T07:29:22;101446.25;;;21.38;54.09
75936;BME280;64614;32.062;34.834;2022-12-07T07:31:47;101448.75;;;21.39;54.47
75936;BME280;64614;32.062;34.834;2022-12-07T07:34:14;101453.38;;;21.39;54.34
75936;BME280;64614;32.062;34.834;2022-12-07T07:36:40;101450.69;;;21.34;54.52
75936;BME280;64614;32.062;34.834;2022-12-07T07:39:06;101438.66;;;21.35;54.51
75936;BME280;64614;32.062;34.834;2022-12-07T07:41:32;101439.63;;;21.49;54.17
75936;BME280;64614;32.062;34.834;2022-12-07T07:43:57;101427.06;;;21.48;54.42
75936;BME280;64614;32.062;34.834;2022-12-07T07:46:23;101432.28;;;21.44;54.37
75936;BME280;64614;32.062;34.834;2022-12-07T07:48:49;101439.16;;;21.42;54.44
75936;BME280;64614;32.062;34.834;2022-12-07T07:51:14;101446.25;;;21.43;54.52
75936;BME280;64614;32.062;34.834;2022-12-07T07:53:41;101435.84;;;21.45;54.05
75936;BME280;64614;32.062;34.834;2022-12-07T07:56:07;101427.91;;;21.49;54.28
75936;BME280;64614;32.062;34.834;2022-12-07T07:58:32;101435.25;;;21.53;54.42
75936;BME280;64614;32.062;34.834;2022-12-07T08:01:04;101439.03;;;21.57;53.93
75936;BME280;64614;32.062;34.834;2022-12-07T08:03:31;101437.16;;;21.58;54.16
75936;BME280;64614;32.062;34.834;2022-12-07T08:05:57;101440.06;;;21.67;53.99
75936;BME280;64614;32.062;34.834;2022-12-07T08:08:23;101434.00;;;21.75;53.95
75936;BME280;64614;32.062;34.834;2022-12-07T08:10:48;101426.84;;;21.79;54.11
75936;BME280;64614;32.062;34.834;2022-12-07T08:13:17;101428.19;;;21.82;53.63
75936;BME280;64614;32.062;34.834;2022-12-07T08:15:45;101429.28;;;21.81;53.80
75936;BME280;64614;32.062;34.834;2022-12-07T08:18:12;101435.38;;;21.72;53.98
75936;BME280;64614;32.062;34.834;2022-12-07T08:20:39;101431.56;;;21.73;53.96
75936;BME280;64614;32.062;34.834;2022-12-07T08:23:06;101422.00;;;21.71;54.05
75936;BME280;64614;32.062;34.834;2022-12-07T08:25:33;101416.53;;;21.71;54.15
75936;BME280;64614;32.062;34.834;2022-12-07T08:27:58;101413.13;;;21.84;53.83
75936;BME280;64614;32.062;34.834;2022-12-07T08:30:28;101415.84;;;21.84;54.06
75936;BME280;64614;32.062;34.834;2022-12-07T08:32:54;101416.47;;;21.81;54.05
75936;BME280;64614;32.062;34.834;2022-12-07T08:35:20;101408.75;;;21.83;54.15
75936;BME280;64614;32.062;34.834;2022-12-07T08:37:46;101408.03;;;21.72;54.34
75936;BME280;64614;32.062;34.834;2022-12-07T08:40:13;101414.13;;;21.64;54.54
75936;BME280;64614;32.062;34.834;2022-12-07T08:42:48;101407.59;;;21.60;54.69
75936;BME280;64614;32.062;34.834;2022-12-07T08:45:16;101406.00;;;21.59;54.65
75936;BME280;64614;32.062;34.834;2022-12-07T08:48:06;101396.94;;;21.64;54.67
75936;BME280;64614;32.062;34.834;2022-12-07T08:50:34;101392.03;;;21.60;54.99
75936;BME280;64614;32.062;34.834;2022-12-07T08:53:02;101385.47;;;21.56;55.31
75936;BME280;64614;32.062;34.834;2022-12-07T08:55:30;101389.81;;;21.57;55.30
75936;BME280;64614;32.062;34.834;2022-12-07T08:58:00;101383.56;;;21.57;55.36
75936;BME280;64614;32.062;34.834;2022-12-07T09:00:26;101389.81;;;21.57;55.07
75936;BME280;64614;32.062;34.834;2022-12-07T09:02:53;101384.97;;;21.49;55.23
75936;BME280;64614;32.062;34.834;2022-12-07T09:05:19;101386.06;;;21.53;55.41
75936;BME280;64614;32.062;34.834;2022-12-07T09:07:47;101383.81;;;21.55;55.20
75936;BME280;64614;32.062;34.834;2022-12-07T09:10:14;101374.59;;;21.51;55.47
75936;BME280;64614;32.062;34.834;2022-12-07T09:12:40;101379.81;;;21.48;55.44
75936;BME280;64614;32.062;34.834;2022-12-07T09:15:06;101377.06;;;21.48;55.51
75936;BME280;64614;32.062;34.834;2022-12-07T09:17:33;101378.13;;;21.52;55.43
75936;BME280;64614;32.062;34.834;2022-12-07T09:19:59;101361.47;;;21.53;55.61
75936;BME280;64614;32.062;34.834;2022-12-07T09:22:28;101360.91;;;21.51;55.76
75936;BME280;64614;32.062;34.834;2022-12-07T09:24:54;101360.69;;;21.48;55.97
75936;BME280;64614;32.062;34.834;2022-12-07T09:27:20;101367.19;;;21.52;55.89
75936;BME280;64614;32.062;34.834;2022-12-07T09:29:45;101360.69;;;21.48;56.08
75936;BME280;64614;32.062;34.834;2022-12-07T09:32:11;101359.84;;;21.47;56.18
75936;BME280;64614;32.062;34.834;2022-12-07T09:34:37;101353.59;;;21.47;56.43
75936;BME280;64614;32.062;34.834;2022-12-07T09:37:02;101358.19;;;21.51;56.54
75936;BME280;64614;32.062;34.834;2022-12-07T09:39:29;101346.72;;;21.49;56.84
75936;BME280;64614;32.062;34.834;2022-12-07T09:41:54;101346.47;;;21.45;56.90
75936;BME280;64614;32.062;34.834;2022-12-07T09:44:24;101349.75;;;21.48;56.79
75936;BME280;64614;32.062;34.834;2022-12-07T09:46:50;101349.19;;;21.51;56.70
75936;BME280;64614;32.062;34.834;2022-12-07T09:49:21;101334.44;;;21.47;56.71
75936;BME280;64614;32.062;34.834;2022-12-07T09:51:58;101340.44;;;21.49;56.74
75936;BME280;64614;32.062;34.834;2022-12-07T09:54:24;101329.22;;;21.50;56.73
75936;BME280;64614;32.062;34.834;2022-12-07T09:56:50;101322.66;;;21.51;56.65
75936;BME280;64614;32.062;34.834;2022-12-07T09:59:19;101317.75;;;21.48;56.61
75936;BME280;64614;32.062;34.834;2022-12-07T10:01:47;101313.66;;;21.51;55.99
75936;BME280;64614;32.062;34.834;2022-12-07T10:04:21;101312.53;;;21.52;56.04
75936;BME280;64614;32.062;34.834;2022-12-07T10:06:49;101305.97;;;21.58;55.85
75936;BME280;64614;32.062;34.834;2022-12-07T10:09:21;101300.72;;;21.56;55.64
75936;BME280;64614;32.062;34.834;2022-12-07T10:12:07;101298.00;;;21.56;55.19
75936;BME280;64614;32.062;34.834;2022-12-07T10:14:37;101292.53;;;21.62;55.05
75936;BME280;64614;32.062;34.834;2022-12-07T10:17:38;101295.03;;;21.58;54.64
75936;BME280;64614;32.062;34.834;2022-12-07T10:20:18;101284.31;;;21.62;54.42
75936;BME280;64614;32.062;34.834;2022-12-07T10:23:17;101286.53;;;21.59;54.25
75936;BME280;64614;32.062;34.834;2022-12-07T10:25:44;101286.03;;;21.52;54.02
75936;BME280;64614;32.062;34.834;2022-12-07T10:28:17;101290.38;;;21.58;53.25
75936;BME280;64614;32.062;34.834;2022-12-07T10:31:14;101284.41;;;21.51;53.07
75936;BME280;64614;32.062;34.834;2022-12-07T10:33:52;101279.47;;;21.53;53.30
75936;BME280;64614;32.062;34.834;2022-12-07T10:39:00;101272.91;;;21.54;52.51
75936;BME280;64614;32.062;34.834;2022-12-07T10:41:26;101264.66;;;21.59;52.92
75936;BME280;64614;32.062;34.834;2022-12-07T10:43:54;101263.56;;;21.55;53.09
75936;BME280;64614;32.062;34.834;2022-12-07T10:46:37;101263.88;;;21.59;52.96
75936;BME280;64614;32.062;34.834;2022-12-07T10:51:56;101260.25;;;21.64;53.09
75936;BME280;64614;32.062;34.834;2022-12-07T11:00:22;101261.59;;;21.66;53.55
75936;BME280;64614;32.062;34.834;2022-12-07T11:02:59;101264.91;;;21.63;53.51
75936;BME280;64614;32.062;34.834;2022-12-07T11:05:49;101264.03;;;21.68;53.60
75936;BME280;64614;32.062;34.834;2022-12-07T11:16:57;101265.66;;;21.69;53.20
75936;BME280;64614;32.062;34.834;2022-12-07T11:22:06;101257.22;;;21.89;53.34
75936;BME280;64614;32.062;34.834;2022-12-07T11:24:55;101270.59;;;21.91;53.90
75936;BME280;64614;32.062;34.834;2022-12-07T11:27:48;101264.81;;;21.92;53.83
75936;BME280;64614;32.062;34.834;2022-12-07T11:30:20;101268.09;;;21.95;53.90
75936;BME280;64614;32.062;34.834;2022-12-07T11:38:37;101263.16;;;21.97;54.70
75936;BME280;64614;32.062;34.834;2022-12-07T11:41:08;101257.69;;;21.97;54.90
75936;BME280;64614;32.062;34.834;2022-12-07T11:43:59;101258.22;;;21.99;54.85
75936;BME280;64614;32.062;34.834;2022-12-07T11:46:49;101257.94;;;21.95;55.10
75936;BME280;64614;32.062;34.834;2022-12-07T11:49:21;101252.66;;;22.04;55.15
75936;BME280;64614;32.062;34.834;2022-12-07T11:51:53;101254.34;;;22.00;55.14
75936;BME280;64614;32.062;34.834;2022-12-07T11:54:28;101247.75;;;22.01;55.06
75936;BME280;64614;32.062;34.834;2022-12-07T11:56:59;101261.16;;;22.02;55.46
75936;BME280;64614;32.062;34.834;2022-12-07T11:59:36;101261.66;;;22.04;54.86
75936;BME280;64614;32.062;34.834;2022-12-07T12:02:26;101259.47;;;22.06;55.34
75936;BME280;64614;32.062;34.834;2022-12-07T12:05:14;101267.38;;;22.08;55.41
75936;BME280;64614;32.062;34.834;2022-12-07T12:07:44;101260.78;;;22.09;55.22
75936;BME280;64614;32.062;34.834;2022-12-07T12:10:25;101253.72;;;22.08;55.40
75936;BME280;64614;32.062;34.834;2022-12-07T12:15:38;101264.56;;;22.13;55.20
75936;BME280;64614;32.062;34.834;2022-12-07T12:24:30;101250.59;;;22.15;55.39
75936;BME280;64614;32.062;34.834;2022-12-07T12:27:05;101251.91;;;22.17;55.31
75936;BME280;64614;32.062;34.834;2022-12-07T12:29:35;101255.19;;;22.19;54.86
75936;BME280;64614;32.062;34.834;2022-12-07T12:32:17;101247.28;;;22.18;55.53
75936;BME280;64614;32.062;34.834;2022-12-07T12:45:31;101231.63;;;22.23;55.31
75936;BME280;64614;32.062;34.834;2022-12-07T12:48:04;101240.19;;;22.36;55.05
75936;BME280;64614;32.062;34.834;2022-12-07T12:50:35;101237.41;;;22.41;54.88
75936;BME280;64614;32.062;34.834;2022-12-07T12:53:16;101238.75;;;22.44;54.94
75936;BME280;64614;32.062;34.834;2022-12-07T12:58:30;101232.91;;;22.50;54.61
75936;BME280;64614;32.062;34.834;2022-12-07T13:01:33;101231.28;;;22.49;54.97
75936;BME280;64614;32.062;34.834;2022-12-07T13:04:16;101227.50;;;22.45;55.05
75936;BME280;64614;32.062;34.834;2022-12-07T13:06:43;101235.13;;;22.48;55.17
75936;BME280;64614;32.062;34.834;2022-12-07T13:09:34;101227.72;;;22.49;54.98
75936;BME280;64614;32.062;34.834;2022-12-07T13:12:13;101232.50;;;22.57;54.83
75936;BME280;64614;32.062;34.834;2022-12-07T13:14:52;101231.91;;;22.60;55.51
75936;BME280;64614;32.062;34.834;2022-12-07T13:20:04;101221.34;;;22.53;55.18
75936;BME280;64614;32.062;34.834;2022-12-07T13:25:20;101219.44;;;22.54;55.23
75936;BME280;64614;32.062;34.834;2022-12-07T13:28:17;101229.06;;;22.51;55.17
75936;BME280;64614;32.062;34.834;2022-12-07T13:31:00;101217.91;;;22.48;55.13
75936;BME280;64614;32.062;34.834;2022-12-07T13:33:29;101224.69;;;22.50;54.69
75936;BME280;64614;32.062;34.834;2022-12-07T13:35:57;101217.59;;;22.49;54.86
75936;BME280;64614;32.062;34.834;2022-12-07T13:38:33;101238.88;;;22.52;55.09
75936;BME280;64614;32.062;34.834;2022-12-07T13:41:16;101231.34;;;22.44;54.83
75936;BME280;64614;32.062;34.834;2022-12-07T13:44:15;101245.53;;;22.46;55.21
75936;BME280;64614;32.062;34.834;2022-12-07T13:49:46;101245.25;;;22.48;54.74
75936;BME280;64614;32.062;34.834;2022-12-07T13:57:22;101234.91;;;22.45;55.17
75936;BME280;64614;32.062;34.834;2022-12-07T13:59:52;101244.75;;;22.46;54.76
75936;BME280;64614;32.062;34.834;2022-12-07T14:02:23;101244.44;;;22.47;55.32
75936;BME280;64614;32.062;34.834;2022-12-07T14:04:51;101246.59;;;22.50;54.83
75936;BME280;64614;32.062;34.834;2022-12-07T14:07:28;101250.97;;;22.51;55.03
75936;BME280;64614;32.062;34.834;2022-12-07T14:10:04;101233.06;;;22.40;54.86
75936;BME280;64614;32.062;34.834;2022-12-07T14:12:31;101242.81;;;22.46;54.71
75936;BME280;64614;32.062;34.834;2022-12-07T14:15:00;101247.16;;;22.47;55.03
75936;BME280;64614;32.062;34.834;2022-12-07T14:20:49;101233.06;;;22.40;55.18
75936;BME280;64614;32.062;34.834;2022-12-07T14:23:30;101233.06;;;22.40;54.96
75936;BME280;64614;32.062;34.834;2022-12-07T14:26:14;101248.13;;;22.57;55.02
75936;BME280;64614;32.062;34.834;2022-12-07T14:28:45;101244.88;;;22.54;55.24
75936;BME280;64614;32.062;34.834;2022-12-07T14:31:14;101240.22;;;22.55;55.47
75936;BME280;64614;32.062;34.834;2022-12-07T14:33:41;101248.44;;;22.55;55.32
75936;BME280;64614;32.062;34.834;2022-12-07T14:36:11;101245.91;;;22.59;55.55